createdAt,value
2023-03-05T00:02:20.211Z,3.60
2023-03-05T00:05:09.235Z,3.50
2023-03-05T00:07:58.612Z,3.50
2023-03-05T00:10:46.643Z,3.50
2023-03-05T00:13:35.258Z,3.50
2023-03-05T00:16:26.723Z,3.50
2023-03-05T00:19:14.912Z,3.50
2023-03-05T00:22:03.011Z,3.40
2023-03-05T00:24:52.770Z,3.40
2023-03-05T00:27:40.862Z,3.40
2023-03-05T00:30:28.921Z,3.40
2023-03-05T00:33:17.011Z,3.40
2023-03-05T00:36:06.683Z,3.40
2023-03-05T00:38:55.059Z,3.40
2023-03-05T00:41:44.731Z,3.30
2023-03-05T00:44:32.805Z,3.40
2023-03-05T00:47:20.888Z,3.40
2023-03-05T00:50:09.633Z,3.40
2023-03-05T00:52:57.660Z,3.30
2023-03-05T00:55:45.796Z,3.40
2023-03-05T00:58:35.166Z,3.30
2023-03-05T01:01:23.445Z,3.30
2023-03-05T01:04:11.620Z,3.30
2023-03-05T01:06:59.724Z,3.30
2023-03-05T01:09:47.892Z,3.30
2023-03-05T01:12:36.028Z,3.20
2023-03-05T01:15:25.844Z,3.20
2023-03-05T01:18:13.926Z,3.20
2023-03-05T01:21:02.008Z,3.10
2023-03-05T01:23:50.124Z,3.10
2023-03-05T01:26:38.228Z,3.10
2023-03-05T01:29:26.553Z,3.00
2023-03-05T01:32:15.976Z,2.90
2023-03-05T01:35:04.739Z,2.90
2023-03-05T01:37:52.918Z,2.70
2023-03-05T01:40:41.005Z,2.60
2023-03-05T01:43:29.965Z,2.60
2023-03-05T01:46:29.193Z,2.60
2023-03-05T01:49:26.341Z,2.60
2023-03-05T01:52:17.994Z,2.60
2023-03-05T01:55:07.425Z,2.50
2023-03-05T01:57:56.756Z,2.60
2023-03-05T02:00:46.451Z,2.50
2023-03-05T02:03:35.046Z,2.50
2023-03-05T02:06:24.491Z,2.60
2023-03-05T02:09:12.726Z,2.50
2023-03-05T02:12:00.819Z,2.50
2023-03-05T02:14:51.328Z,2.50
2023-03-05T02:17:39.441Z,2.50
2023-03-05T02:20:28.973Z,2.50
2023-03-05T02:23:18.908Z,2.50
2023-03-05T02:26:08.738Z,2.50
2023-03-05T02:28:58.177Z,2.50
2023-03-05T02:31:46.325Z,2.50
2023-03-05T02:34:34.510Z,2.50
2023-03-05T02:37:22.611Z,2.50
2023-03-05T02:40:13.268Z,2.60
2023-03-05T02:43:01.361Z,2.50
2023-03-05T02:45:49.433Z,2.60
2023-03-05T02:48:37.562Z,2.60
2023-03-05T02:51:25.647Z,2.60
2023-03-05T02:54:13.817Z,2.60
2023-03-05T02:57:03.238Z,2.60
2023-03-05T02:59:51.401Z,2.60
2023-03-05T03:02:39.485Z,2.60
2023-03-05T03:05:27.574Z,2.70
2023-03-05T03:08:16.127Z,2.70
2023-03-05T03:11:08.034Z,2.70
2023-03-05T03:13:57.439Z,2.60
2023-03-05T03:16:45.562Z,2.60
2023-03-05T03:19:33.723Z,2.60
2023-03-05T03:22:21.816Z,2.60
2023-03-05T03:25:11.537Z,2.60
2023-03-05T03:27:59.616Z,2.60
2023-03-05T03:30:49.061Z,2.60
2023-03-05T03:33:37.151Z,2.50
2023-03-05T03:36:25.219Z,2.50
2023-03-05T03:39:14.726Z,2.50
2023-03-05T03:42:02.810Z,2.50
2023-03-05T03:44:51.000Z,2.50
2023-03-05T03:47:40.467Z,2.60
2023-03-05T03:50:28.555Z,2.70
2023-03-05T03:53:17.504Z,2.70
2023-03-05T03:56:05.963Z,2.70
2023-03-05T03:58:54.261Z,2.70
2023-03-05T04:01:42.594Z,2.70
2023-03-05T04:04:32.019Z,2.70
2023-03-05T04:07:20.139Z,2.70
2023-03-05T04:10:08.541Z,2.70
2023-03-05T04:12:56.629Z,2.70
2023-03-05T04:15:45.040Z,2.70
2023-03-05T04:18:33.082Z,2.70
2023-03-05T04:21:22.485Z,2.70
2023-03-05T04:24:10.588Z,2.70
2023-03-05T04:26:58.698Z,2.70
2023-03-05T04:29:46.767Z,2.70
2023-03-05T04:32:34.874Z,2.70
2023-03-05T04:35:23.099Z,2.70
2023-03-05T04:38:12.647Z,2.70
2023-03-05T04:41:00.762Z,2.80
2023-03-05T04:43:48.827Z,2.80
2023-03-05T04:46:36.940Z,2.80
2023-03-05T04:49:25.017Z,2.80
2023-03-05T04:52:13.734Z,2.80
2023-03-05T04:55:03.220Z,2.80
2023-03-05T04:57:51.302Z,2.80
2023-03-05T05:00:39.992Z,2.80
2023-03-05T05:03:28.157Z,2.80
2023-03-05T05:06:16.265Z,2.80
2023-03-05T05:09:04.374Z,2.80
2023-03-05T05:11:53.819Z,2.80
2023-03-05T05:14:41.890Z,2.80
2023-03-05T05:17:34.597Z,2.80
2023-03-05T05:20:22.786Z,2.80
2023-03-05T05:23:10.864Z,2.80
2023-03-05T05:25:59.701Z,2.80
2023-03-05T05:28:49.149Z,2.80
2023-03-05T05:31:37.600Z,2.70
2023-03-05T05:34:26.112Z,2.70
2023-03-05T05:37:14.195Z,2.70
2023-03-05T05:40:02.252Z,2.70
2023-03-05T05:42:50.345Z,2.60
2023-03-05T05:45:39.901Z,2.50
2023-03-05T05:48:29.058Z,2.50
2023-03-05T05:51:18.273Z,2.40
2023-03-05T05:54:06.577Z,2.40
2023-03-05T05:56:54.667Z,2.40
2023-03-05T05:59:42.749Z,2.50
2023-03-05T06:02:32.156Z,2.60
2023-03-05T06:05:20.275Z,2.70
2023-03-05T06:08:08.393Z,2.80
2023-03-05T06:10:56.577Z,2.80
2023-03-05T06:13:44.668Z,2.90
2023-03-05T06:16:32.830Z,2.90
2023-03-05T06:19:22.271Z,2.90
2023-03-05T06:22:10.340Z,2.80
2023-03-05T06:24:58.395Z,2.80
2023-03-05T06:27:46.488Z,2.80
2023-03-05T06:30:34.583Z,2.70
2023-03-05T06:33:22.633Z,2.80
2023-03-05T06:36:13.852Z,2.80
2023-03-05T06:39:01.927Z,2.80
2023-03-05T06:41:51.340Z,2.90
2023-03-05T06:44:39.905Z,2.90
2023-03-05T06:47:27.975Z,2.90
2023-03-05T06:50:16.159Z,2.90
2023-03-05T06:53:05.577Z,3.00
2023-03-05T06:55:54.066Z,3.00
2023-03-05T06:58:42.224Z,3.10
2023-03-05T07:01:30.376Z,3.10
2023-03-05T07:04:18.561Z,3.10
2023-03-05T07:07:06.788Z,3.20
2023-03-05T07:09:56.229Z,3.20
2023-03-05T07:12:44.300Z,3.20
2023-03-05T07:15:32.413Z,3.30
2023-03-05T07:18:20.606Z,3.40
2023-03-05T07:21:09.979Z,3.40
2023-03-05T07:23:59.030Z,3.40
2023-03-05T07:26:49.038Z,3.40
2023-03-05T07:29:37.231Z,3.50
2023-03-05T07:32:25.350Z,3.50
2023-03-05T07:35:13.678Z,3.60
2023-03-05T07:38:01.727Z,3.60
2023-03-05T07:40:49.960Z,3.60
2023-03-05T07:43:39.916Z,3.70
2023-03-05T07:46:29.018Z,3.70
2023-03-05T07:49:17.427Z,3.70
2023-03-05T07:52:05.702Z,3.60
2023-03-05T07:54:53.809Z,3.60
2023-03-05T07:57:41.893Z,3.60
2023-03-05T08:00:31.332Z,3.50
2023-03-05T08:03:19.438Z,3.50
2023-03-05T08:06:08.025Z,3.40
2023-03-05T08:08:56.163Z,3.30
2023-03-05T08:11:44.770Z,3.30
2023-03-05T08:14:32.876Z,3.30
2023-03-05T08:17:22.321Z,3.30
2023-03-05T08:20:11.283Z,3.20
2023-03-05T08:22:59.350Z,3.20
2023-03-05T08:25:47.460Z,3.10
2023-03-05T08:28:35.510Z,3.00
2023-03-05T08:31:24.262Z,3.00
2023-03-05T08:34:13.780Z,3.10
2023-03-05T08:37:01.900Z,3.20
2023-03-05T08:39:49.980Z,3.30
2023-03-05T08:42:38.169Z,3.30
2023-03-05T08:45:27.661Z,3.40
2023-03-05T08:48:15.724Z,3.40
2023-03-05T08:51:09.351Z,3.50
2023-03-05T08:53:59.512Z,3.50
2023-03-05T08:56:47.595Z,3.60
2023-03-05T08:59:35.726Z,3.70
2023-03-05T09:02:23.803Z,3.80
2023-03-05T09:05:12.090Z,3.80
2023-03-05T09:08:01.480Z,3.80
2023-03-05T09:10:49.556Z,3.90
2023-03-05T09:13:37.667Z,4.00
2023-03-05T09:16:25.837Z,4.10
2023-03-05T09:19:15.202Z,4.30
2023-03-05T09:22:03.344Z,4.40
2023-03-05T09:24:52.772Z,4.50
2023-03-05T09:27:40.843Z,4.60
2023-03-05T09:30:28.960Z,4.60
2023-03-05T09:33:17.046Z,4.30
2023-03-05T09:36:05.700Z,4.20
2023-03-05T09:38:54.291Z,4.10
2023-03-05T09:41:54.049Z,4.10
2023-03-05T09:44:46.611Z,4.10
2023-03-05T09:47:45.048Z,4.10
2023-03-05T09:50:35.777Z,4.00
2023-03-05T09:53:27.154Z,3.90
2023-03-05T09:56:17.560Z,3.80
2023-03-05T09:59:16.303Z,3.90
2023-03-05T10:02:05.837Z,3.90
2023-03-05T10:04:55.873Z,3.80
2023-03-05T10:07:45.164Z,3.80
2023-03-05T10:10:37.065Z,3.70
2023-03-05T10:13:26.344Z,3.60
2023-03-05T10:16:29.950Z,3.60
2023-03-05T10:19:27.759Z,3.80
2023-03-05T10:22:18.784Z,4.00
2023-03-05T10:25:18.263Z,4.10
2023-03-05T10:28:10.856Z,3.90
2023-03-05T10:31:13.123Z,3.70
2023-03-05T10:34:08.477Z,3.50
2023-03-05T10:37:03.825Z,3.30
2023-03-05T10:40:06.151Z,3.30
2023-03-05T10:42:57.472Z,3.50
2023-03-05T10:45:46.493Z,3.70
2023-03-05T10:48:37.630Z,3.80
2023-03-05T10:51:32.960Z,4.00
2023-03-05T10:54:25.381Z,4.20
2023-03-05T10:57:18.207Z,4.50
2023-03-05T11:00:14.340Z,4.70
2023-03-05T11:03:03.563Z,4.70
2023-03-05T11:05:53.182Z,4.60
2023-03-05T11:08:42.774Z,4.50
2023-03-05T11:11:33.190Z,4.30
2023-03-05T11:14:30.008Z,4.20
2023-03-05T11:17:27.559Z,4.00
2023-03-05T11:20:29.895Z,4.00
2023-03-05T11:23:18.508Z,4.10
2023-03-05T11:26:19.301Z,4.20
2023-03-05T11:29:16.862Z,4.10
2023-03-05T11:32:21.051Z,4.00
2023-03-05T11:35:23.375Z,4.10
2023-03-05T11:38:16.969Z,4.30
2023-03-05T11:41:05.141Z,4.60
2023-03-05T11:43:55.312Z,5.00
2023-03-05T11:46:45.876Z,5.30
2023-03-05T11:49:35.348Z,5.30
2023-03-05T11:52:25.760Z,5.10
2023-03-05T11:55:15.748Z,4.90
2023-03-05T11:58:12.142Z,4.70
2023-03-05T12:01:02.198Z,4.40
2023-03-05T12:03:51.481Z,4.30
2023-03-05T12:06:42.558Z,4.70
2023-03-05T12:09:34.815Z,5.40
2023-03-05T12:12:36.047Z,6.00
2023-03-05T12:15:32.444Z,6.40
2023-03-05T12:18:27.981Z,6.80
2023-03-05T12:21:18.047Z,7.10
2023-03-05T12:24:34.930Z,7.50
2023-03-05T12:27:33.199Z,7.50
2023-03-05T12:30:39.910Z,7.40
2023-03-05T12:33:33.685Z,7.30
2023-03-05T12:36:34.798Z,7.30
2023-03-05T12:39:37.734Z,7.00
2023-03-05T12:42:52.947Z,6.70
2023-03-05T12:45:42.377Z,6.60
2023-03-05T12:48:51.299Z,6.40
2023-03-05T12:51:41.744Z,6.20
2023-03-05T12:54:31.992Z,6.20
2023-03-05T12:57:21.318Z,6.60
2023-03-05T13:00:13.213Z,6.50
2023-03-05T13:03:03.157Z,6.30
2023-03-05T13:05:52.437Z,6.20
2023-03-05T13:08:42.673Z,6.00
2023-03-05T13:11:31.750Z,6.00
2023-03-05T13:14:40.423Z,5.90
2023-03-05T13:17:30.016Z,5.80
2023-03-05T13:20:29.731Z,5.80
2023-03-05T13:23:20.587Z,5.70
2023-03-05T13:26:15.468Z,5.70
2023-03-05T13:29:07.664Z,5.60
2023-03-05T13:31:57.475Z,5.70
2023-03-05T13:34:48.107Z,5.50
2023-03-05T13:37:38.429Z,5.60
2023-03-05T13:40:27.720Z,5.90
2023-03-05T13:43:20.648Z,6.10
2023-03-05T13:46:09.127Z,6.20
2023-03-05T13:48:57.617Z,6.00
2023-03-05T13:51:46.379Z,5.80
2023-03-05T13:54:34.881Z,5.80
2023-03-05T13:57:36.918Z,6.70
2023-03-05T14:00:28.559Z,8.70
2023-03-05T14:03:22.122Z,10.40
2023-03-05T14:06:11.287Z,9.70
2023-03-05T14:09:03.910Z,8.60
2023-03-05T14:11:55.726Z,8.10
2023-03-05T14:14:44.844Z,9.30
2023-03-05T14:17:39.653Z,8.90
2023-03-05T14:20:29.339Z,8.00
2023-03-05T14:23:28.235Z,7.20
2023-03-05T14:26:21.750Z,6.70
2023-03-05T14:29:17.513Z,6.20
2023-03-05T14:32:07.274Z,6.00
2023-03-05T14:34:58.506Z,5.90
2023-03-05T14:37:49.055Z,6.00
2023-03-05T14:40:37.969Z,6.10
2023-03-05T14:43:26.059Z,6.00
2023-03-05T14:46:14.206Z,6.00
2023-03-05T14:49:02.481Z,5.90
2023-03-05T14:51:51.894Z,5.80
2023-03-05T14:54:39.988Z,5.60
2023-03-05T14:57:29.241Z,5.40
2023-03-05T15:00:17.881Z,5.20
2023-03-05T15:03:06.142Z,4.90
2023-03-05T15:05:55.572Z,4.70
2023-03-05T15:08:45.043Z,4.60
2023-03-05T15:11:33.103Z,4.50
2023-03-05T15:14:21.201Z,4.70
2023-03-05T15:17:12.178Z,4.90
2023-03-05T15:20:00.777Z,5.10
2023-03-05T15:22:49.008Z,5.20
2023-03-05T15:25:38.851Z,5.20
2023-03-05T15:28:28.827Z,5.20
2023-03-05T15:31:17.497Z,5.20
2023-03-05T15:34:05.701Z,5.30
2023-03-05T15:36:53.797Z,5.30
2023-03-05T15:39:42.476Z,5.30
2023-03-05T15:42:31.884Z,5.30
2023-03-05T15:45:20.089Z,5.20
2023-03-05T15:48:08.417Z,5.20
2023-03-05T15:50:56.461Z,5.10
2023-03-05T15:53:46.405Z,5.10
2023-03-05T15:56:34.527Z,5.10
2023-03-05T15:59:25.182Z,5.10
2023-03-05T16:02:13.285Z,5.20
2023-03-05T16:05:01.467Z,5.20
2023-03-05T16:07:51.738Z,5.20
2023-03-05T16:10:41.888Z,5.20
2023-03-05T16:13:30.969Z,5.10
2023-03-05T16:16:21.768Z,5.10
2023-03-05T16:19:10.555Z,5.10
2023-03-05T16:21:58.665Z,5.10
2023-03-05T16:24:46.752Z,5.20
2023-03-05T16:27:34.856Z,5.20
2023-03-05T16:30:22.961Z,5.20
2023-03-05T16:33:12.384Z,5.10
2023-03-05T16:36:20.270Z,5.00
2023-03-05T16:39:08.509Z,5.00
2023-03-05T16:41:57.776Z,4.90
2023-03-05T16:44:47.386Z,4.80
2023-03-05T16:47:36.053Z,4.80
2023-03-05T16:50:25.639Z,4.80
2023-03-05T16:53:13.989Z,4.90
2023-03-05T16:56:04.207Z,4.90
2023-03-05T16:58:53.802Z,4.90
2023-03-05T17:01:42.903Z,4.90
2023-03-05T17:04:31.062Z,4.90
2023-03-05T17:07:20.474Z,4.90
2023-03-05T17:10:09.152Z,4.90
2023-03-05T17:12:57.605Z,4.90
2023-03-05T17:15:45.698Z,4.90
2023-03-05T17:18:34.111Z,4.90
2023-03-05T17:21:22.169Z,4.90
2023-03-05T17:24:11.678Z,4.90
2023-03-05T17:27:00.312Z,5.00
2023-03-05T17:29:48.399Z,5.00
2023-03-05T17:32:36.679Z,5.00
2023-03-05T17:35:25.023Z,5.00
2023-03-05T17:38:13.474Z,5.00
2023-03-05T17:41:03.932Z,5.00
2023-03-05T17:43:52.386Z,5.00
2023-03-05T17:46:40.485Z,4.90
2023-03-05T17:49:28.664Z,4.90
2023-03-05T17:52:18.210Z,4.80
2023-03-05T17:55:09.093Z,4.80
2023-03-05T17:57:58.967Z,4.80
2023-03-05T18:00:47.336Z,4.70
2023-03-05T18:03:35.504Z,4.70
2023-03-05T18:06:23.658Z,4.70
2023-03-05T18:09:12.105Z,4.70
2023-03-05T18:12:00.231Z,4.70
2023-03-05T18:14:49.661Z,4.70
2023-03-05T18:17:38.026Z,4.80
2023-03-05T18:20:28.171Z,4.70
2023-03-05T18:23:16.510Z,4.80
2023-03-05T18:26:04.651Z,4.90
2023-03-05T18:28:52.745Z,4.90
2023-03-05T18:31:42.131Z,4.90
2023-03-05T18:34:30.206Z,4.90
2023-03-05T18:37:18.463Z,4.90
2023-03-05T18:40:09.655Z,4.80
2023-03-05T18:42:59.831Z,4.70
2023-03-05T18:45:48.446Z,4.60
2023-03-05T18:48:38.231Z,4.60
2023-03-05T18:51:27.509Z,4.50
2023-03-05T18:54:15.602Z,4.50
2023-03-05T18:57:03.702Z,4.50
2023-03-05T18:59:51.826Z,4.50
2023-03-05T19:02:39.918Z,4.60
2023-03-05T19:05:30.155Z,4.50
2023-03-05T19:08:18.254Z,4.50
2023-03-05T19:11:14.290Z,4.40
2023-03-05T19:14:02.338Z,4.40
2023-03-05T19:16:50.438Z,4.40
2023-03-05T19:19:42.605Z,4.30
2023-03-05T19:22:32.519Z,4.30
2023-03-05T19:25:21.070Z,4.20
2023-03-05T19:28:09.118Z,4.20
2023-03-05T19:30:57.466Z,4.10
2023-03-05T19:33:45.595Z,4.10
2023-03-05T19:36:34.401Z,4.00
2023-03-05T19:39:23.961Z,4.00
2023-03-05T19:42:12.054Z,3.90
2023-03-05T19:45:00.337Z,3.80
2023-03-05T19:47:48.452Z,3.80
2023-03-05T19:50:36.513Z,3.80
2023-03-05T19:53:25.000Z,3.80
2023-03-05T19:56:16.186Z,3.80
2023-03-05T19:59:04.430Z,3.90
2023-03-05T20:01:52.809Z,3.90
2023-03-05T20:04:40.966Z,3.90
2023-03-05T20:07:29.075Z,3.90
2023-03-05T20:10:17.167Z,3.90
2023-03-05T20:13:06.564Z,3.90
2023-03-05T20:15:54.955Z,3.90
2023-03-05T20:18:43.251Z,3.90
2023-03-05T20:21:34.059Z,3.90
2023-03-05T20:24:22.367Z,3.90
2023-03-05T20:27:10.453Z,4.00
2023-03-05T20:30:00.576Z,3.90
2023-03-05T20:32:48.720Z,3.90
2023-03-05T20:35:36.853Z,3.90
2023-03-05T20:38:26.080Z,3.90
2023-03-05T20:41:15.414Z,3.80
2023-03-05T20:44:04.678Z,3.80
2023-03-05T20:47:02.702Z,3.80
2023-03-05T20:49:54.769Z,3.80
2023-03-05T20:52:42.910Z,3.80
2023-03-05T20:55:31.006Z,3.80
2023-03-05T20:58:19.082Z,3.80
2023-03-05T21:01:07.492Z,3.80
2023-03-05T21:03:57.910Z,3.80
2023-03-05T21:06:46.015Z,3.80
2023-03-05T21:09:34.118Z,3.80
2023-03-05T21:12:22.208Z,3.80
2023-03-05T21:15:10.992Z,3.90
2023-03-05T21:17:59.108Z,3.90
2023-03-05T21:20:48.508Z,3.90
2023-03-05T21:23:36.624Z,4.00
2023-03-05T21:26:24.661Z,4.00
2023-03-05T21:29:12.748Z,4.00
2023-03-05T21:32:00.895Z,4.00
2023-03-05T21:34:49.014Z,4.00
2023-03-05T21:37:42.529Z,4.10
2023-03-05T21:40:30.628Z,4.10
2023-03-05T21:43:19.782Z,4.10
2023-03-05T21:46:07.912Z,4.10
2023-03-05T21:48:56.133Z,4.10
2023-03-05T21:51:57.006Z,4.00
2023-03-05T21:54:46.621Z,4.00
2023-03-05T21:57:34.684Z,4.10
2023-03-05T22:00:23.869Z,4.00
2023-03-05T22:03:11.942Z,4.10
2023-03-05T22:06:00.070Z,4.10
2023-03-05T22:08:48.363Z,4.00
2023-03-05T22:11:37.774Z,4.00
2023-03-05T22:14:25.892Z,3.90
2023-03-05T22:17:13.963Z,3.90
2023-03-05T22:20:02.046Z,3.80
2023-03-05T22:22:50.128Z,3.80
2023-03-05T22:25:38.448Z,3.80
2023-03-05T22:28:28.488Z,3.80
2023-03-05T22:31:20.828Z,3.80
2023-03-05T22:34:08.919Z,3.70
2023-03-05T22:36:58.009Z,3.70
2023-03-05T22:39:46.098Z,3.70
2023-03-05T22:42:34.144Z,3.70
2023-03-05T22:45:23.582Z,3.70
2023-03-05T22:48:12.233Z,3.70
2023-03-05T22:51:00.317Z,3.70
2023-03-05T22:53:48.466Z,3.70
2023-03-05T22:56:37.386Z,3.70
2023-03-05T22:59:25.487Z,3.70
2023-03-05T23:02:14.884Z,3.70
2023-03-05T23:05:03.575Z,3.70
2023-03-05T23:07:51.618Z,3.70
2023-03-05T23:10:39.722Z,3.60
2023-03-05T23:13:28.095Z,3.60
2023-03-05T23:16:16.207Z,3.70
2023-03-05T23:19:05.680Z,3.70
2023-03-05T23:21:53.755Z,3.80
2023-03-05T23:24:42.069Z,3.80
2023-03-05T23:27:30.258Z,3.80
2023-03-05T23:30:19.820Z,3.80
2023-03-05T23:33:09.085Z,3.80
2023-03-05T23:35:59.440Z,3.80
2023-03-05T23:38:47.615Z,3.80
2023-03-05T23:41:35.682Z,3.90
2023-03-05T23:44:23.715Z,3.90
2023-03-05T23:47:11.791Z,3.80
2023-03-05T23:49:59.839Z,3.90
2023-03-05T23:52:49.748Z,3.90
2023-03-05T23:55:40.546Z,3.90
2023-03-05T23:58:28.967Z,3.90
